createdAt,value
2022-10-29T00:00:53.268Z,96233.59
2022-10-29T00:03:20.519Z,96235.38
2022-10-29T00:06:02.079Z,96225.75
2022-10-29T00:08:30.883Z,96229.44
2022-10-29T00:11:09.155Z,96231.25
2022-10-29T00:13:36.435Z,96231.44
2022-10-29T00:16:12.465Z,96228.81
2022-10-29T00:18:39.065Z,96239.91
2022-10-29T00:21:10.245Z,96237.03
2022-10-29T00:23:36.969Z,96238.81
2022-10-29T00:26:04.427Z,96238.97
2022-10-29T00:28:31.555Z,96235.28
2022-10-29T00:31:03.000Z,96236.28
2022-10-29T00:33:29.571Z,96239.31
2022-10-29T00:36:02.049Z,96240.75
2022-10-29T00:38:30.950Z,96241.09
2022-10-29T00:40:57.493Z,96239.78
2022-10-29T00:43:26.036Z,96239.00
2022-10-29T00:45:52.494Z,96236.25
2022-10-29T00:48:20.576Z,96246.06
2022-10-29T00:50:47.728Z,96248.31
2022-10-29T00:53:19.646Z,96242.03
2022-10-29T00:55:46.523Z,96240.28
2022-10-29T00:58:13.150Z,96245.44
2022-10-29T01:00:39.797Z,96241.56
2022-10-29T01:03:06.879Z,96241.56
2022-10-29T01:05:35.163Z,96232.56
2022-10-29T01:08:01.909Z,96235.28
2022-10-29T01:10:35.714Z,96241.09
2022-10-29T01:13:21.068Z,96235.16
2022-10-29T01:16:02.711Z,96237.88
2022-10-29T01:18:45.300Z,96229.50
2022-10-29T01:21:32.457Z,96234.03
2022-10-29T01:24:19.621Z,96233.38
2022-10-29T01:26:55.173Z,96234.84
2022-10-29T01:29:40.566Z,96231.13
2022-10-29T01:32:18.638Z,96228.56
2022-10-29T01:35:00.185Z,96234.66
2022-10-29T01:37:35.337Z,96236.72
2022-10-29T01:40:17.816Z,96240.41
2022-10-29T01:42:56.145Z,96247.34
2022-10-29T01:45:33.400Z,96240.41
2022-10-29T01:48:06.105Z,96243.31
2022-10-29T01:50:34.156Z,96245.53
2022-10-29T01:53:00.820Z,96240.25
2022-10-29T01:55:32.902Z,96244.25
2022-10-29T01:57:59.441Z,96238.31
2022-10-29T02:00:27.606Z,96242.78
2022-10-29T02:03:06.406Z,96244.03
2022-10-29T02:05:43.772Z,96240.81
2022-10-29T02:08:38.985Z,96240.97
2022-10-29T02:11:23.771Z,96239.97
2022-10-29T02:13:58.855Z,96236.28
2022-10-29T02:16:26.638Z,96239.31
2022-10-29T02:18:53.254Z,96234.81
2022-10-29T02:21:21.035Z,96234.34
2022-10-29T02:23:47.879Z,96229.50
2022-10-29T02:26:14.788Z,96229.31
2022-10-29T02:28:41.270Z,96230.78
2022-10-29T02:31:08.106Z,96225.16
2022-10-29T02:33:34.629Z,96229.31
2022-10-29T02:36:01.266Z,96231.84
2022-10-29T02:38:28.014Z,96236.00
2022-10-29T02:40:54.483Z,96233.91
2022-10-29T02:43:21.018Z,96236.16
2022-10-29T02:45:47.573Z,96236.78
2022-10-29T02:48:14.114Z,96234.38
2022-10-29T02:50:40.694Z,96226.50
2022-10-29T02:53:07.333Z,96230.66
2022-10-29T02:55:33.868Z,96226.34
2022-10-29T02:58:00.372Z,96232.41
2022-10-29T03:00:26.867Z,96230.00
2022-10-29T03:02:53.678Z,96231.09
2022-10-29T03:05:20.462Z,96230.63
2022-10-29T03:07:46.945Z,96222.28
2022-10-29T03:10:13.676Z,96217.63
2022-10-29T03:12:40.162Z,96213.59
2022-10-29T03:15:07.110Z,96216.63
2022-10-29T03:17:33.700Z,96216.13
2022-10-29T03:20:00.207Z,96219.97
2022-10-29T03:22:26.761Z,96219.50
2022-10-29T03:24:53.271Z,96211.63
2022-10-29T03:27:19.779Z,96211.94
2022-10-29T03:29:46.368Z,96220.41
2022-10-29T03:32:12.911Z,96219.94
2022-10-29T03:34:39.470Z,96225.69
2022-10-29T03:37:05.971Z,96237.69
2022-10-29T03:39:32.491Z,96234.19
2022-10-29T03:41:59.060Z,96223.59
2022-10-29T03:44:25.562Z,96222.81
2022-10-29T03:46:52.008Z,96220.06
2022-10-29T03:49:18.664Z,96224.69
2022-10-29T03:51:45.137Z,96220.38
2022-10-29T03:54:11.656Z,96223.13
2022-10-29T03:56:38.205Z,96229.66
2022-10-29T03:59:04.678Z,96237.84
2022-10-29T04:01:31.416Z,96229.66
2022-10-29T04:03:58.062Z,96230.78
2022-10-29T04:06:24.575Z,96230.78
2022-10-29T04:08:51.083Z,96236.22
2022-10-29T04:11:17.615Z,96223.72
2022-10-29T04:13:44.137Z,96227.25
2022-10-29T04:16:10.687Z,96224.53
2022-10-29T04:18:37.208Z,96219.06
2022-10-29T04:29:24.731Z,96214.81
2022-10-29T04:31:51.476Z,96209.03
2022-10-29T04:34:18.174Z,96211.63
2022-10-29T04:36:44.747Z,96215.34
2022-10-29T04:39:11.303Z,96217.44
2022-10-29T04:41:37.870Z,96220.03
2022-10-29T04:44:04.505Z,96225.34
2022-10-29T04:46:30.991Z,96220.88
2022-10-29T04:48:57.551Z,96213.66
2022-10-29T04:51:26.627Z,96222.53
2022-10-29T04:53:53.406Z,96226.03
2022-10-29T04:56:19.995Z,96215.31
2022-10-29T04:58:46.544Z,96220.44
2022-10-29T05:01:13.336Z,96215.19
2022-10-29T05:03:39.999Z,96211.00
2022-10-29T05:06:07.150Z,96209.59
2022-10-29T05:08:33.959Z,96210.06
2022-10-29T05:11:04.637Z,96204.28
2022-10-29T05:13:31.984Z,96206.06
2022-10-29T05:15:58.429Z,96206.56
2022-10-29T05:18:25.302Z,96204.81
2022-10-29T05:20:55.641Z,96197.09
2022-10-29T05:23:22.862Z,96195.69
2022-10-29T05:25:49.703Z,96198.56
2022-10-29T05:28:18.993Z,96200.19
2022-10-29T05:30:46.643Z,96198.25
2022-10-29T05:33:18.576Z,96200.19
2022-10-29T05:35:46.081Z,96203.72
2022-10-29T05:38:13.959Z,96206.75
2022-10-29T05:40:41.380Z,96204.34
2022-10-29T05:43:08.057Z,96208.53
2022-10-29T05:45:34.753Z,96211.56
2022-10-29T05:48:03.333Z,96212.69
2022-10-29T05:50:31.363Z,96220.06
2022-10-29T05:53:02.093Z,96209.47
2022-10-29T05:55:31.427Z,96216.53
2022-10-29T05:57:59.107Z,96205.59
2022-10-29T06:00:28.418Z,96208.84
2022-10-29T06:02:55.890Z,96207.69
2022-10-29T06:05:23.409Z,96201.94
2022-10-29T06:08:00.820Z,96195.06
2022-10-29T06:10:29.359Z,96200.66
2022-10-29T06:12:55.765Z,96189.13
2022-10-29T06:15:22.583Z,96201.66
2022-10-29T06:17:49.645Z,96205.84
2022-10-29T06:20:19.532Z,96209.56
2022-10-29T06:22:46.172Z,96218.72
2022-10-29T06:25:12.935Z,96217.25
2022-10-29T06:27:39.515Z,96220.50
2022-10-29T06:30:06.684Z,96219.53
2022-10-29T06:32:33.231Z,96230.63
2022-10-29T06:34:59.798Z,96235.91
2022-10-29T06:37:26.361Z,96239.31
2022-10-29T06:39:52.973Z,96231.75
2022-10-29T06:42:19.487Z,96236.72
2022-10-29T06:44:46.242Z,96231.47
2022-10-29T06:47:12.728Z,96222.31
2022-10-29T06:49:39.254Z,96220.84
2022-10-29T06:52:05.891Z,96225.19
2022-10-29T06:54:32.356Z,96225.34
2022-10-29T06:56:58.882Z,96233.22
2022-10-29T06:59:25.444Z,96235.31
2022-10-29T07:01:51.974Z,96236.59
2022-10-29T07:04:18.597Z,96247.69
2022-10-29T07:06:45.358Z,96242.69
2022-10-29T07:09:11.946Z,96243.97
2022-10-29T07:11:38.630Z,96249.13
2022-10-29T07:14:05.423Z,96250.72
2022-10-29T07:16:31.916Z,96253.94
2022-10-29T07:18:58.429Z,96257.94
2022-10-29T07:21:24.929Z,96251.69
2022-10-29T07:23:51.568Z,96253.31
2022-10-29T07:26:18.259Z,96247.84
2022-10-29T07:28:44.802Z,96246.38
2022-10-29T07:31:11.549Z,96236.75
2022-10-29T07:33:38.017Z,96242.34
2022-10-29T07:36:05.055Z,96247.97
2022-10-29T07:38:31.565Z,96253.28
2022-10-29T07:40:58.123Z,96259.06
2022-10-29T07:43:24.696Z,96256.31
2022-10-29T07:45:51.729Z,96259.53
2022-10-29T07:48:20.152Z,96254.97
2022-10-29T07:50:47.574Z,96252.38
2022-10-29T07:53:14.401Z,96250.56
2022-10-29T07:55:41.000Z,96253.88
2022-10-29T07:58:11.358Z,96250.94
2022-10-29T08:00:40.598Z,96251.50
2022-10-29T08:03:08.192Z,96252.06
2022-10-29T08:05:35.015Z,96249.91
2022-10-29T08:08:01.863Z,96253.53
2022-10-29T08:10:30.467Z,96253.25
2022-10-29T08:12:59.393Z,96257.19
2022-10-29T08:15:28.259Z,96245.50
2022-10-29T08:17:55.017Z,96245.53
2022-10-29T08:20:23.989Z,96238.84
2022-10-29T08:22:50.691Z,96232.16
2022-10-29T08:25:18.463Z,96227.34
2022-10-29T08:27:45.112Z,96233.59
2022-10-29T08:30:14.024Z,96231.53
2022-10-29T08:32:45.938Z,96227.09
2022-10-29T08:35:13.005Z,96234.44
2022-10-29T08:37:43.527Z,96233.06
2022-10-29T08:40:29.988Z,96237.19
2022-10-29T08:43:25.421Z,96234.22
2022-10-29T08:45:54.485Z,96232.16
2022-10-29T08:48:47.652Z,96230.81
2022-10-29T08:51:34.121Z,96232.63
2022-10-29T08:54:25.564Z,96234.44
2022-10-29T08:56:53.769Z,96228.03
2022-10-29T08:59:22.750Z,96224.03
2022-10-29T09:01:50.640Z,96223.47
2022-10-29T09:04:27.510Z,96231.91
2022-10-29T09:07:06.051Z,96229.06
2022-10-29T09:09:51.339Z,96218.69
2022-10-29T09:12:36.509Z,96225.19
2022-10-29T09:15:12.197Z,96223.13
2022-10-29T09:17:50.078Z,96226.53
2022-10-29T09:20:22.243Z,96223.34
2022-10-29T09:23:09.546Z,96220.28
2022-10-29T09:25:49.662Z,96222.50
2022-10-29T09:28:50.157Z,96219.66
2022-10-29T09:31:16.626Z,96216.72
2022-10-29T09:33:49.320Z,96220.13
2022-10-29T09:36:18.419Z,96219.06
2022-10-29T09:38:59.033Z,96218.00
2022-10-29T09:41:30.690Z,96222.09
2022-10-29T09:44:02.694Z,96225.72
2022-10-29T09:46:39.462Z,96223.44
2022-10-29T09:49:24.581Z,96223.06
2022-10-29T09:52:10.131Z,96226.97
2022-10-29T09:54:37.029Z,96228.56
2022-10-29T09:57:03.845Z,96227.75
2022-10-29T09:59:40.770Z,96214.00
2022-10-29T10:02:20.362Z,96220.69
2022-10-29T10:04:50.835Z,96220.75
2022-10-29T10:07:18.529Z,96209.84
2022-10-29T10:09:59.903Z,96214.63
2022-10-29T10:12:38.454Z,96215.53
2022-10-29T10:15:23.058Z,96214.53
2022-10-29T10:18:03.120Z,96210.81
2022-10-29T10:20:43.086Z,96205.91
2022-10-29T10:23:23.539Z,96200.59
2022-10-29T10:25:52.375Z,96201.91
2022-10-29T10:28:27.852Z,96190.97
2022-10-29T10:31:14.921Z,96193.88
2022-10-29T10:33:55.186Z,96192.44
2022-10-29T10:36:25.140Z,96190.31
2022-10-29T10:38:54.539Z,96186.53
2022-10-29T10:41:30.831Z,96183.47
2022-10-29T10:44:00.568Z,96179.34
2022-10-29T10:46:34.990Z,96177.13
2022-10-29T10:49:17.207Z,96170.16
2022-10-29T10:51:46.362Z,96172.25
2022-10-29T10:54:40.337Z,96160.59
2022-10-29T10:57:13.080Z,96154.84
2022-10-29T10:59:58.251Z,96151.47
2022-10-29T11:02:43.561Z,96158.72
2022-10-29T11:05:17.033Z,96151.44
2022-10-29T11:07:52.619Z,96150.47
2022-10-29T11:10:25.323Z,96139.16
2022-10-29T11:12:56.695Z,96141.31
2022-10-29T11:15:37.851Z,96135.91
2022-10-29T11:18:18.661Z,96139.97
2022-10-29T11:20:55.323Z,96130.63
2022-10-29T11:23:34.297Z,96129.13
2022-10-29T11:26:11.193Z,96126.06
2022-10-29T11:28:48.716Z,96123.78
2022-10-29T11:31:28.124Z,96122.25
2022-10-29T11:34:17.716Z,96113.63
2022-10-29T11:36:57.851Z,96111.31
2022-10-29T11:39:47.031Z,96112.19
2022-10-29T11:42:13.686Z,96109.09
2022-10-29T11:44:40.976Z,96107.59
2022-10-29T11:47:25.251Z,96110.41
2022-10-29T11:50:20.892Z,96107.69
2022-10-29T11:53:01.740Z,96102.63
2022-10-29T11:55:37.952Z,96102.72
2022-10-29T11:58:23.280Z,96099.22
2022-10-29T12:01:27.802Z,96089.00
2022-10-29T12:04:14.170Z,96098.19
2022-10-29T12:06:58.574Z,96085.59
2022-10-29T12:09:43.372Z,96092.78
2022-10-29T12:12:28.419Z,96082.91
2022-10-29T12:15:09.055Z,96084.91
2022-10-29T12:17:40.026Z,96073.47
2022-10-29T12:20:27.659Z,96071.13
2022-10-29T12:23:27.514Z,96071.53
2022-10-29T12:26:12.043Z,96077.09
2022-10-29T12:28:59.872Z,96060.88
2022-10-29T12:31:34.881Z,96067.63
2022-10-29T12:34:19.342Z,96058.50
2022-10-29T12:36:57.492Z,96066.44
2022-10-29T12:39:55.420Z,96056.56
2022-10-29T12:42:25.500Z,96056.19
2022-10-29T12:45:16.706Z,96057.41
2022-10-29T12:47:57.040Z,96054.25
2022-10-29T12:51:03.308Z,96055.06
2022-10-29T12:53:36.096Z,96052.28
2022-10-29T12:56:03.868Z,96041.25
2022-10-29T12:58:53.074Z,96052.31
2022-10-29T13:01:38.247Z,96049.16
2022-10-29T13:04:24.103Z,96050.34
2022-10-29T13:07:02.946Z,96046.41
2022-10-29T13:09:34.889Z,96042.03
2022-10-29T13:12:04.640Z,96041.28
2022-10-29T13:14:53.320Z,96036.13
2022-10-29T13:17:40.310Z,96035.75
2022-10-29T13:20:21.950Z,96034.19
2022-10-29T13:22:53.854Z,96027.09
2022-10-29T13:25:34.036Z,96026.69
2022-10-29T13:28:21.171Z,96024.38
2022-10-29T13:30:49.912Z,96030.31
2022-10-29T13:33:28.760Z,96018.44
2022-10-29T13:36:03.540Z,96023.59
2022-10-29T13:39:05.714Z,96018.44
2022-10-29T13:41:43.496Z,96018.06
2022-10-29T13:44:12.622Z,96013.72
2022-10-29T13:46:47.800Z,96012.16
2022-10-29T13:49:21.228Z,96007.03
2022-10-29T13:51:55.469Z,96008.63
2022-10-29T13:54:28.547Z,96009.41
2022-10-29T13:57:14.020Z,96007.44
2022-10-29T13:59:53.422Z,96013.75
2022-10-29T14:02:50.158Z,96014.16
2022-10-29T14:05:23.336Z,96010.16
2022-10-29T14:08:20.648Z,96013.69
2022-10-29T14:10:50.241Z,96012.09
2022-10-29T14:13:31.851Z,96012.88
2022-10-29T14:16:09.773Z,96016.41
2022-10-29T14:18:40.349Z,96015.88
2022-10-29T14:21:13.566Z,96009.66
2022-10-29T14:23:40.582Z,96014.81
2022-10-29T14:26:16.151Z,96014.75
2022-10-29T14:28:42.807Z,96008.81
2022-10-29T14:31:15.896Z,96014.31
2022-10-29T14:33:44.402Z,96017.47
2022-10-29T14:36:24.718Z,96015.06
2022-10-29T14:38:58.524Z,96015.44
2022-10-29T14:41:26.816Z,96019.75
2022-10-29T14:44:02.369Z,96017.75
2022-10-29T14:46:31.475Z,96016.13
2022-10-29T14:49:09.931Z,96016.13
2022-10-29T14:51:40.662Z,96024.44
2022-10-29T14:54:16.369Z,96016.13
2022-10-29T14:56:43.426Z,96013.38
2022-10-29T14:59:18.970Z,96012.97
2022-10-29T15:01:57.088Z,96008.59
2022-10-29T15:04:30.147Z,96015.31
2022-10-29T15:07:15.148Z,96014.88
2022-10-29T15:10:20.168Z,96008.09
2022-10-29T15:12:47.625Z,96012.41
2022-10-29T15:15:17.203Z,96012.31
2022-10-29T15:17:52.265Z,96013.81
2022-10-29T15:20:32.233Z,96017.66
2022-10-29T15:22:59.794Z,96019.19
2022-10-29T15:25:32.003Z,96013.97
2022-10-29T15:27:59.665Z,96009.16
2022-10-29T15:30:35.442Z,96010.59
2022-10-29T15:33:04.649Z,96010.88
2022-10-29T15:35:31.304Z,96006.00
2022-10-29T15:37:57.809Z,96008.69
2022-10-29T15:40:25.475Z,96008.50
2022-10-29T15:42:53.065Z,95999.66
2022-10-29T15:45:23.540Z,96002.25
2022-10-29T15:48:17.957Z,96006.03
2022-10-29T15:50:45.843Z,96000.69
2022-10-29T15:53:20.342Z,95999.31
2022-10-29T15:55:51.317Z,96001.47
2022-10-29T15:58:21.230Z,96000.44
2022-10-29T16:00:47.790Z,96004.19
2022-10-29T16:03:17.782Z,96011.84
2022-10-29T16:05:46.895Z,96000.97
2022-10-29T16:08:31.580Z,96007.00
2022-10-29T16:11:00.227Z,95996.97
2022-10-29T16:13:30.179Z,96009.38
2022-10-29T16:15:56.875Z,95999.69
2022-10-29T16:18:23.543Z,96002.66
2022-10-29T16:20:56.014Z,96006.44
2022-10-29T16:23:22.611Z,96003.06
2022-10-29T16:25:49.400Z,96000.19
2022-10-29T16:28:15.934Z,95998.88
2022-10-29T16:30:42.843Z,96006.59
2022-10-29T16:33:10.789Z,96002.16
2022-10-29T16:35:37.629Z,96004.41
2022-10-29T16:38:04.314Z,96007.88
2022-10-29T16:40:30.799Z,96006.19
2022-10-29T16:42:57.735Z,96002.56
2022-10-29T16:45:27.839Z,96009.94
2022-10-29T16:47:54.673Z,96003.56
2022-10-29T16:50:23.121Z,96003.13
2022-10-29T16:53:14.231Z,95998.69
2022-10-29T16:55:41.045Z,95996.25
2022-10-29T16:58:15.907Z,95999.72
2022-10-29T17:00:42.626Z,95994.16
2022-10-29T17:03:12.139Z,96004.38
2022-10-29T17:05:41.210Z,96000.72
2022-10-29T17:08:08.080Z,95995.94
2022-10-29T17:10:35.547Z,96002.13
2022-10-29T17:13:02.480Z,96000.44
2022-10-29T17:15:29.429Z,96002.75
2022-10-29T17:17:56.274Z,96008.97
2022-10-29T17:20:23.050Z,96008.06
2022-10-29T17:22:49.683Z,96006.38
2022-10-29T17:25:16.237Z,96012.63
2022-10-29T17:27:42.833Z,96008.19
2022-10-29T17:30:10.906Z,96009.25
2022-10-29T17:32:37.962Z,96009.03
2022-10-29T17:35:04.718Z,96013.53
2022-10-29T17:37:31.316Z,96013.47
2022-10-29T17:40:01.454Z,96019.22
2022-10-29T17:42:31.518Z,96026.56
2022-10-29T17:44:58.081Z,96017.78
2022-10-29T17:47:24.748Z,96018.84
2022-10-29T17:49:51.454Z,96014.72
2022-10-29T17:52:17.951Z,96025.59
2022-10-29T17:54:44.553Z,96021.16
2022-10-29T17:57:11.036Z,96022.19
2022-10-29T17:59:37.565Z,96024.84
2022-10-29T18:02:04.349Z,96026.69
2022-10-29T18:04:31.028Z,96029.34
2022-10-29T18:06:57.576Z,96025.34
2022-10-29T18:09:24.139Z,96021.34
2022-10-29T18:11:50.655Z,96018.50
2022-10-29T18:14:17.320Z,96018.03
2022-10-29T18:16:43.765Z,96022.75
2022-10-29T18:19:10.299Z,96017.94
2022-10-29T18:21:36.823Z,96021.03
2022-10-29T18:24:03.468Z,96017.81
2022-10-29T18:26:30.966Z,96015.78
2022-10-29T18:28:59.133Z,96018.06
2022-10-29T18:31:26.878Z,96027.16
2022-10-29T18:33:54.729Z,96018.22
2022-10-29T18:36:21.499Z,96019.38
2022-10-29T18:38:52.384Z,96019.97
2022-10-29T18:41:19.299Z,96016.75
2022-10-29T18:43:46.208Z,96020.53
2022-10-29T18:46:12.981Z,96018.84
2022-10-29T18:48:41.858Z,96014.72
2022-10-29T18:51:14.780Z,96009.47
2022-10-29T18:53:41.565Z,96016.44
2022-10-29T18:56:13.765Z,96010.38
2022-10-29T18:58:40.874Z,96008.66
2022-10-29T19:01:18.767Z,96008.09
2022-10-29T19:03:49.608Z,96006.50
2022-10-29T19:06:16.491Z,96012.88
2022-10-29T19:08:45.026Z,96004.09
2022-10-29T19:11:19.515Z,96006.59
2022-10-29T19:14:12.899Z,96005.47
2022-10-29T19:16:39.400Z,96002.94
2022-10-29T19:19:10.044Z,96005.88
2022-10-29T19:21:37.874Z,96004.19
2022-10-29T19:24:05.248Z,96011.81
2022-10-29T19:26:34.491Z,96004.63
2022-10-29T19:29:04.205Z,95996.75
2022-10-29T19:31:32.663Z,96005.97
2022-10-29T19:34:01.474Z,96008.59
2022-10-29T19:36:29.798Z,96007.34
2022-10-29T19:38:56.691Z,96000.94
2022-10-29T19:41:23.701Z,96000.81
2022-10-29T19:43:50.554Z,95993.63
2022-10-29T19:46:19.514Z,96005.72
2022-10-29T19:48:50.989Z,96002.03
2022-10-29T19:51:18.051Z,95997.22
2022-10-29T19:53:45.230Z,95997.88
2022-10-29T19:56:13.320Z,96001.31
2022-10-29T19:58:39.836Z,95996.59
2022-10-29T20:01:12.578Z,95994.44
2022-10-29T20:03:39.214Z,95993.63
2022-10-29T20:06:05.983Z,95989.66
2022-10-29T20:08:32.479Z,95992.25
2022-10-29T20:10:59.999Z,95994.53
2022-10-29T20:13:27.292Z,95992.47
2022-10-29T20:15:54.717Z,95998.59
2022-10-29T20:18:21.799Z,95999.28
2022-10-29T20:20:55.853Z,95993.69
2022-10-29T20:23:23.628Z,95988.88
2022-10-29T20:25:50.197Z,96000.50
2022-10-29T20:28:16.741Z,95991.03
2022-10-29T20:30:43.226Z,95992.81
2022-10-29T20:33:09.937Z,95994.28
2022-10-29T20:35:36.501Z,95989.03
2022-10-29T20:38:03.278Z,95995.16
2022-10-29T20:40:29.770Z,95989.91
2022-10-29T20:42:56.417Z,95990.09
2022-10-29T20:45:23.065Z,95991.91
2022-10-29T20:47:49.554Z,95986.63
2022-10-29T20:50:16.376Z,95989.25
2022-10-29T20:52:48.114Z,95991.81
2022-10-29T20:55:15.394Z,95999.44
2022-10-29T20:57:41.891Z,95997.34
2022-10-29T21:00:09.173Z,95990.59
2022-10-29T21:02:35.780Z,95984.88
2022-10-29T21:05:02.380Z,95987.13
2022-10-29T21:07:28.989Z,95988.59
2022-10-29T21:09:55.480Z,95989.56
2022-10-29T21:12:21.992Z,95994.91
2022-10-29T21:14:48.602Z,95992.00
2022-10-29T21:17:15.063Z,95988.00
2022-10-29T21:19:41.538Z,95994.59
2022-10-29T21:22:08.167Z,95987.88
2022-10-29T21:24:35.631Z,95986.59
2022-10-29T21:27:02.385Z,95991.94
2022-10-29T21:29:28.859Z,95986.78
2022-10-29T21:31:55.333Z,95983.56
2022-10-29T21:34:22.808Z,95984.72
2022-10-29T21:36:49.429Z,95981.81
2022-10-29T21:39:15.933Z,95984.09
2022-10-29T21:41:42.533Z,95980.91
2022-10-29T21:44:09.114Z,95979.28
2022-10-29T21:46:35.667Z,95986.22
2022-10-29T21:49:02.215Z,95982.22
2022-10-29T21:51:28.697Z,95975.13
2022-10-29T21:53:55.236Z,95979.34
2022-10-29T21:56:21.748Z,95976.94
2022-10-29T21:58:51.001Z,95979.19
2022-10-29T22:01:17.586Z,95985.78
2022-10-29T22:03:45.541Z,95977.13
2022-10-29T22:06:13.638Z,95979.38
2022-10-29T22:08:40.525Z,95984.38
2022-10-29T22:11:07.630Z,95977.59
2022-10-29T22:13:34.796Z,95975.22
2022-10-29T22:16:02.379Z,95978.59
2022-10-29T22:18:29.553Z,95979.28
2022-10-29T22:21:11.029Z,95975.59
2022-10-29T22:23:47.962Z,95976.69
2022-10-29T22:26:16.841Z,95974.63
2022-10-29T22:28:43.886Z,95972.53
2022-10-29T22:31:11.043Z,95972.88
2022-10-29T22:33:37.601Z,95973.88
2022-10-29T22:36:08.836Z,95973.69
2022-10-29T22:38:36.269Z,95968.56
2022-10-29T22:41:11.006Z,95978.56
2022-10-29T22:43:38.101Z,95961.66
2022-10-29T22:46:05.950Z,95965.06
2022-10-29T22:48:33.071Z,95965.72
2022-10-29T22:51:01.740Z,95961.72
2022-10-29T22:53:28.214Z,95967.50
2022-10-29T22:55:54.967Z,95960.41
2022-10-29T22:58:22.104Z,95959.16
2022-10-29T23:00:48.856Z,95958.66
2022-10-29T23:03:15.403Z,95951.63
2022-10-29T23:05:42.057Z,95955.47
2022-10-29T23:08:08.579Z,95950.66
2022-10-29T23:10:35.868Z,95955.63
2022-10-29T23:13:02.358Z,95957.88
2022-10-29T23:15:28.839Z,95947.28
2022-10-29T23:17:55.709Z,95954.97
2022-10-29T23:20:22.324Z,95945.19
2022-10-29T23:22:48.826Z,95952.88
2022-10-29T23:25:15.445Z,95951.31
2022-10-29T23:27:41.918Z,95948.91
2022-10-29T23:30:09.110Z,95950.00
2022-10-29T23:32:35.651Z,95946.81
2022-10-29T23:35:02.157Z,95945.19
2022-10-29T23:37:28.695Z,95940.91
2022-10-29T23:39:55.266Z,95935.44
2022-10-29T23:42:21.801Z,95940.06
2022-10-29T23:44:48.252Z,95933.50
2022-10-29T23:47:14.844Z,95928.38
2022-10-29T23:49:41.489Z,95937.34
2022-10-29T23:52:08.009Z,95934.63
2022-10-29T23:54:34.717Z,95927.56
2022-10-29T23:57:01.421Z,95929.16
2022-10-29T23:59:27.926Z,95930.31
